createdAt,value
2016-04-04T06:29:33.608Z,-0.61
2016-04-04T06:29:46.811Z,-0.52
2016-04-04T06:30:00.655Z,-0.55
2016-04-04T06:30:14.438Z,-0.51
2016-04-04T06:30:28.407Z,-0.54
2016-04-04T06:30:42.579Z,-0.48
2016-04-04T06:30:56.344Z,-0.49
2016-04-04T06:31:10.363Z,-0.46
2016-04-04T06:31:24.160Z,-0.46
2016-04-04T06:31:52.129Z,-0.4
2016-04-04T06:32:06.191Z,-0.33
2016-04-04T06:32:20.303Z,-0.28
2016-04-04T06:32:34.256Z,-0.41
2016-04-04T06:32:48.240Z,-0.3
2016-04-04T06:33:02.193Z,-0.38
2016-04-04T06:33:16.088Z,-0.41
2016-04-04T06:33:29.869Z,-0.45
2016-04-04T06:33:43.666Z,-0.3
2016-04-04T06:33:57.619Z,-0.34
2016-04-04T06:34:11.449Z,-0.41
2016-04-04T06:34:25.543Z,-0.31
2016-04-04T06:34:42.293Z,-0.38
2016-04-04T06:34:56.246Z,-0.33
2016-04-04T06:35:09.498Z,-0.33
2016-04-04T06:35:23.404Z,-0.34
2016-04-04T06:35:40.467Z,-0.23
2016-04-04T06:35:54.420Z,-0.4
2016-04-04T06:36:07.701Z,-0.33
2016-04-04T06:36:24.799Z,-0.33
2016-04-04T06:36:38.924Z,-0.36
2016-04-04T06:36:53.143Z,-0.36
2016-04-04T06:37:07.299Z,-0.33
2016-04-04T06:37:24.082Z,-0.38
2016-04-04T06:37:38.176Z,-0.38
2016-04-04T06:37:52.192Z,-0.37
2016-04-04T06:38:06.285Z,-0.38
2016-04-04T06:38:19.851Z,-0.34
2016-04-04T06:38:33.679Z,-0.31
2016-04-04T06:38:47.710Z,-0.38
2016-04-04T06:39:01.648Z,-0.28
2016-04-04T06:39:15.540Z,-0.25
2016-04-04T06:39:29.634Z,-0.22
2016-04-04T06:39:43.587Z,-0.16
2016-04-04T06:39:57.712Z,-0.2
2016-04-04T06:40:12.028Z,-0.22
2016-04-04T06:40:26.387Z,-0.16
2016-04-04T06:40:40.621Z,-0.15
2016-04-04T06:40:54.700Z,-0.09
2016-04-04T06:41:08.606Z,-0.09
2016-04-04T06:41:22.453Z,-0.07
2016-04-04T06:41:36.796Z,-0.09
2016-04-04T06:41:50.937Z,0.05
2016-04-04T06:42:04.937Z,0.08
2016-04-04T06:42:21.751Z,0.09
2016-04-04T06:42:35.798Z,0.09
2016-04-04T06:42:49.595Z,0.08
2016-04-04T06:43:03.408Z,0.01
2016-04-04T06:43:17.254Z,-0.01
2016-04-04T06:43:31.333Z,0.03
2016-04-04T06:43:45.286Z,-0.07
2016-04-04T06:43:59.176Z,-0.05
2016-04-04T06:44:13.117Z,-0.02
2016-04-04T06:44:27.257Z,-0.09
2016-04-04T06:44:41.211Z,-0.01
2016-04-04T06:44:55.132Z,-0.15
2016-04-04T06:45:08.351Z,-0.15
2016-04-04T06:45:22.292Z,-0.09
2016-04-04T06:45:36.432Z,-0.05
2016-04-04T06:45:50.729Z,0.06
2016-04-04T06:46:04.792Z,0.13
2016-04-04T06:46:18.966Z,0.08
2016-04-04T06:46:32.997Z,0.05
2016-04-04T06:46:47.372Z,0.08
2016-04-04T06:47:01.169Z,0.09
2016-04-04T06:47:15.140Z,0.09
2016-04-04T06:47:29.359Z,0.2
2016-04-04T06:47:43.500Z,0.2
2016-04-04T06:47:57.469Z,0.2
2016-04-04T06:48:11.534Z,0.24
2016-04-04T06:48:24.722Z,0.19
2016-04-04T06:48:38.831Z,0.21
2016-04-04T06:48:52.862Z,0.26
2016-04-04T06:49:07.175Z,0.2
2016-04-04T06:49:35.099Z,0.27
2016-04-04T06:49:49.567Z,0.34
2016-04-04T06:50:03.536Z,0.26
2016-04-04T06:50:17.320Z,0.31
2016-04-04T06:50:31.414Z,0.34
2016-04-04T06:50:59.508Z,0.34
2016-04-04T06:51:13.760Z,0.37
2016-04-04T06:51:27.744Z,0.42
2016-04-04T06:51:41.775Z,0.44
2016-04-04T06:52:09.810Z,0.34
2016-04-04T06:52:23.013Z,0.37
2016-04-04T06:52:36.232Z,0.35
2016-04-04T06:52:49.966Z,0.37
2016-04-04T06:53:04.122Z,0.35
2016-04-04T06:53:18.250Z,0.41
2016-04-04T06:53:31.563Z,0.35
2016-04-04T06:53:44.844Z,0.34
2016-04-04T06:53:58.625Z,0.35
2016-04-04T06:54:12.519Z,0.44
2016-04-04T06:54:26.269Z,0.39
2016-04-04T06:54:40.238Z,0.45
2016-04-04T06:54:54.472Z,0.38
2016-04-04T06:55:08.441Z,0.47
2016-04-04T06:55:22.865Z,0.47
2016-04-04T06:55:36.865Z,0.45
2016-04-04T06:55:50.599Z,0.5
2016-04-04T06:56:05.052Z,0.53
2016-04-04T06:56:19.321Z,0.52
2016-04-04T06:56:33.258Z,0.56
2016-04-04T06:56:47.305Z,0.63
2016-04-04T06:57:01.149Z,0.64
2016-04-04T06:57:15.183Z,0.66
2016-04-04T06:57:29.074Z,0.53
2016-04-04T06:57:42.902Z,0.53
2016-04-04T06:57:56.949Z,0.47
2016-04-04T06:58:10.982Z,0.45
2016-04-04T06:58:24.748Z,0.45
2016-04-04T06:58:38.716Z,0.39
2016-04-04T06:58:52.857Z,0.39
2016-04-04T06:59:06.451Z,0.41
2016-04-04T06:59:48.657Z,0.5
2016-04-04T07:00:02.610Z,0.47
2016-04-04T07:00:16.910Z,0.48
2016-04-04T07:00:30.946Z,0.48
2016-04-04T07:00:45.415Z,0.53
2016-04-04T07:00:59.462Z,0.57
2016-04-04T07:01:13.605Z,0.61
2016-04-04T07:01:27.746Z,0.63
2016-04-04T07:01:41.699Z,0.57
2016-04-04T07:01:55.730Z,0.63
2016-04-04T07:02:09.638Z,0.5
2016-04-04T07:02:24.388Z,0.53
2016-04-04T07:02:38.373Z,0.52
2016-04-04T07:02:52.373Z,0.52
2016-04-04T07:03:06.342Z,0.57
2016-04-04T07:03:20.220Z,0.61
2016-04-04T07:03:34.188Z,0.45
2016-04-04T07:03:48.501Z,0.56
2016-04-04T07:04:02.563Z,0.58
2016-04-04T07:04:16.847Z,0.63
2016-04-04T07:04:30.847Z,0.67
2016-04-04T07:04:45.003Z,0.61
2016-04-04T07:04:58.862Z,0.61
2016-04-04T07:05:12.663Z,0.63
2016-04-04T07:05:26.647Z,0.81
2016-04-04T07:05:40.710Z,0.75
2016-04-04T07:05:54.663Z,0.86
2016-04-04T07:06:08.085Z,0.78
2016-04-04T07:06:22.134Z,0.89
2016-04-04T07:06:35.993Z,0.82
2016-04-04T07:06:50.040Z,0.75
2016-04-04T07:07:04.103Z,0.74
2016-04-04T07:07:18.137Z,0.79
2016-04-04T07:07:32.137Z,0.72
2016-04-04T07:07:46.090Z,0.69
2016-04-04T07:08:00.449Z,0.85
2016-04-04T07:08:14.639Z,0.76
2016-04-04T07:08:28.373Z,0.74
2016-04-04T07:08:42.608Z,0.64
2016-04-04T07:08:56.514Z,0.64
2016-04-04T07:09:10.782Z,0.61
2016-04-04T07:09:24.829Z,0.67
2016-04-04T07:09:38.892Z,0.71
2016-04-04T07:09:52.876Z,0.67
2016-04-04T07:10:06.907Z,0.64
2016-04-04T07:10:21.409Z,0.66
2016-04-04T07:10:35.331Z,0.69
2016-04-04T07:10:49.675Z,0.56
2016-04-04T07:11:03.441Z,0.63
2016-04-04T07:11:17.709Z,0.69
2016-04-04T07:11:31.787Z,0.6
2016-04-04T07:11:45.741Z,0.67
2016-04-04T07:12:00.053Z,0.69
2016-04-04T07:12:13.994Z,0.79
2016-04-04T07:12:28.087Z,0.72
2016-04-04T07:12:42.197Z,0.71
2016-04-04T07:12:56.134Z,0.75
2016-04-04T07:13:09.415Z,0.9
2016-04-04T07:13:23.402Z,0.85
2016-04-04T07:13:37.496Z,0.93
2016-04-04T07:13:51.621Z,0.86
2016-04-04T07:14:19.609Z,0.86
2016-04-04T07:14:33.609Z,0.89
2016-04-04T07:14:47.359Z,0.86
2016-04-04T07:15:01.390Z,0.84
2016-04-04T07:15:15.502Z,0.84
2016-04-04T07:15:29.736Z,0.96
2016-04-04T07:15:43.361Z,1.02
2016-04-04T07:15:57.486Z,1.11
2016-04-04T07:16:11.488Z,1.14
2016-04-04T07:16:25.472Z,1.21
2016-04-04T07:16:39.629Z,1.39
2016-04-04T07:16:53.800Z,1.39
2016-04-04T07:17:07.894Z,1.39
2016-04-04T07:17:25.194Z,1.33
2016-04-04T07:17:39.335Z,1.39
2016-04-04T07:17:53.397Z,1.57
2016-04-04T07:18:07.225Z,1.51
2016-04-04T07:18:21.041Z,1.61
2016-04-04T07:18:35.025Z,1.64
2016-04-04T07:18:49.056Z,1.68
2016-04-04T07:19:03.119Z,1.83
2016-04-04T07:19:17.059Z,1.86
2016-04-04T07:19:31.388Z,1.9
2016-04-04T07:19:45.388Z,1.93
2016-04-04T07:19:59.216Z,1.94
2016-04-04T07:20:12.874Z,2.02
2016-04-04T07:20:27.061Z,1.94
2016-04-04T07:20:41.202Z,2.06
2016-04-04T07:20:55.015Z,2.06
2016-04-04T07:21:08.796Z,2.11
2016-04-04T07:21:22.644Z,2.08
2016-04-04T07:21:39.847Z,2.05
2016-04-04T07:21:54.409Z,2.08
2016-04-04T07:22:08.144Z,2.2
2016-04-04T07:22:22.005Z,2.3
2016-04-04T07:22:49.177Z,2.42
2016-04-04T07:23:03.396Z,2.54
2016-04-04T07:23:17.383Z,2.41
2016-04-04T07:23:31.617Z,2.31
2016-04-04T07:23:45.617Z,2.2
2016-04-04T07:23:59.649Z,2.27
2016-04-04T07:24:13.463Z,2.3
2016-04-04T07:24:27.260Z,2.38
2016-04-04T07:24:41.322Z,2.26
2016-04-04T07:24:55.151Z,2.34
2016-04-04T07:25:08.994Z,2.33
2016-04-04T07:25:23.435Z,2.29
2016-04-04T07:25:37.404Z,2.26
2016-04-04T07:25:51.560Z,2.13
2016-04-04T07:26:05.450Z,2.11
2016-04-04T07:26:19.735Z,2.24
2016-04-04T07:26:33.750Z,2.15
2016-04-04T07:26:47.813Z,2.12
2016-04-04T07:27:01.875Z,2.12
2016-04-04T07:27:16.160Z,2.08
2016-04-04T07:27:30.128Z,2.23
2016-04-04T07:27:44.206Z,2.13
2016-04-04T07:27:58.175Z,2.15
2016-04-04T07:28:12.333Z,2.16
2016-04-04T07:28:26.349Z,2.2
2016-04-04T07:28:40.380Z,2.3
2016-04-04T07:28:54.630Z,2.33
2016-04-04T07:29:08.802Z,2.36
2016-04-04T07:29:22.742Z,2.34
2016-04-04T07:29:36.867Z,2.33
2016-04-04T07:30:04.898Z,2.63
2016-04-04T07:30:19.261Z,2.55
2016-04-04T07:30:33.355Z,2.66
2016-04-04T07:30:46.824Z,2.73
2016-04-04T07:31:00.683Z,2.8
2016-04-04T07:31:14.639Z,2.98
2016-04-04T07:31:28.999Z,3.02
2016-04-04T07:31:43.155Z,3.08
2016-04-04T07:31:57.311Z,3.01
2016-04-04T07:32:11.391Z,3.2
2016-04-04T07:32:25.391Z,3.2
2016-04-04T07:32:39.344Z,3.35
2016-04-04T07:32:53.298Z,3.45
2016-04-04T07:33:07.266Z,3.61
2016-04-04T07:33:21.190Z,3.57
2016-04-04T07:33:34.956Z,3.69
2016-04-04T07:33:49.815Z,3.79
2016-04-04T07:34:04.112Z,3.92
2016-04-04T07:34:18.335Z,4.02
2016-04-04T07:34:31.710Z,4.14
2016-04-04T07:34:45.804Z,4.14
2016-04-04T07:34:59.975Z,4.18
2016-04-04T07:35:13.867Z,4.18
2016-04-04T07:35:28.008Z,4.18
2016-04-04T07:35:42.070Z,4.46
2016-04-04T07:35:56.258Z,4.54
2016-04-04T07:36:10.434Z,4.66
2016-04-04T07:36:24.309Z,4.57
2016-04-04T07:36:38.293Z,4.29
2016-04-04T07:36:52.559Z,4.17
2016-04-04T07:37:06.527Z,4.17
2016-04-04T07:37:20.311Z,4.03
2016-04-04T07:37:34.951Z,4.08
2016-04-04T07:37:48.920Z,3.84
2016-04-04T07:38:02.967Z,3.71
2016-04-04T07:38:31.235Z,3.63
2016-04-04T07:38:45.189Z,3.72
2016-04-04T07:38:59.626Z,3.85
2016-04-04T07:39:13.645Z,3.97
2016-04-04T07:39:27.754Z,4.07
2016-04-04T07:39:41.707Z,4.02
2016-04-04T07:39:55.738Z,4.07
2016-04-04T07:40:10.035Z,4.04
2016-04-04T07:40:23.351Z,4.18
2016-04-04T07:40:37.382Z,4.2
2016-04-04T07:40:51.226Z,4.26
2016-04-04T07:41:05.398Z,4.22
2016-04-04T07:41:19.275Z,4.17
2016-04-04T07:41:33.087Z,3.99
2016-04-04T07:41:47.181Z,4.14
2016-04-04T07:42:01.478Z,4.14
2016-04-04T07:42:15.777Z,4.07
2016-04-04T07:42:30.074Z,3.96
2016-04-04T07:42:43.949Z,4.14
2016-04-04T07:42:57.339Z,4.17
2016-04-04T07:43:11.562Z,4.17
2016-04-04T07:43:25.484Z,4.28
2016-04-04T07:43:39.484Z,4.4
2016-04-04T07:43:53.484Z,4.33
2016-04-04T07:44:06.671Z,4.21
2016-04-04T07:44:20.690Z,4.33
2016-04-04T07:44:34.721Z,4.39
2016-04-04T07:44:48.815Z,4.39
2016-04-04T07:45:02.799Z,4.32
2016-04-04T07:45:48.317Z,4.48
2016-04-04T07:46:30.288Z,4.58
2016-04-04T07:46:44.538Z,4.53
2016-04-04T07:46:58.616Z,4.53
2016-04-04T07:47:13.103Z,4.64
2016-04-04T07:47:27.213Z,4.72
2016-04-04T07:47:41.572Z,4.61
2016-04-04T07:47:58.759Z,4.6
2016-04-04T07:48:12.731Z,4.71
2016-04-04T07:48:27.044Z,4.72
2016-04-04T07:48:41.184Z,4.64
2016-04-04T07:48:55.278Z,4.76
2016-04-04T07:49:09.294Z,4.85
2016-04-04T07:49:23.578Z,4.92
2016-04-04T07:49:51.875Z,4.83
2016-04-04T07:50:05.844Z,4.84
2016-04-04T07:50:20.236Z,4.94
2016-04-04T07:50:34.189Z,4.66
2016-04-04T07:50:48.299Z,4.76
2016-04-04T07:51:02.189Z,4.85
2016-04-04T07:51:16.333Z,4.92
2016-04-04T07:51:30.442Z,4.84
2016-04-04T07:51:44.255Z,4.85
2016-04-04T07:51:58.645Z,5.02
2016-04-04T07:52:12.772Z,5.15
2016-04-04T07:52:26.835Z,5.13
2016-04-04T07:52:40.647Z,5.23
2016-04-04T07:52:54.632Z,5.34
2016-04-04T07:53:09.116Z,5.3
2016-04-04T07:53:23.089Z,5.36
2016-04-04T07:53:37.042Z,5.23
2016-04-04T07:53:50.761Z,5.21
2016-04-04T07:54:05.745Z,5.09
2016-04-04T07:54:19.825Z,5.06
2016-04-04T07:54:34.263Z,4.94
2016-04-04T07:54:48.482Z,4.68
2016-04-04T07:55:06.153Z,4.66
2016-04-04T07:55:20.155Z,4.46
2016-04-04T07:55:34.624Z,4.36
2016-04-04T07:55:48.812Z,4.44
2016-04-04T07:56:02.718Z,4.33
2016-04-04T07:56:30.847Z,4.42
2016-04-04T07:56:45.003Z,4.28
2016-04-04T07:56:59.159Z,4.4
2016-04-04T07:57:12.943Z,4.47
2016-04-04T07:57:29.818Z,4.47
2016-04-04T07:57:43.693Z,4.48
2016-04-04T07:57:57.880Z,4.53
2016-04-04T07:58:54.102Z,4.66
2016-04-04T07:59:08.305Z,4.56
2016-04-04T07:59:22.291Z,4.14
2016-04-04T07:59:36.151Z,4.03
2016-04-04T07:59:50.448Z,4.03
2016-04-04T08:00:04.885Z,4.07
2016-04-04T08:00:18.873Z,4.08
2016-04-04T08:00:32.794Z,4.3
2016-04-04T08:00:46.935Z,4.36
2016-04-04T08:01:01.138Z,4.42
2016-04-04T08:01:15.406Z,4.56
2016-04-04T08:01:29.421Z,4.66
2016-04-04T08:01:46.546Z,4.66
2016-04-04T08:02:00.625Z,4.68
2016-04-04T08:02:14.660Z,4.58
2016-04-04T08:02:28.754Z,4.51
2016-04-04T08:02:43.144Z,4.5
2016-04-04T08:02:57.050Z,4.48
2016-04-04T08:03:10.863Z,4.61
2016-04-04T08:03:25.021Z,4.57
2016-04-04T08:03:39.037Z,4.57
2016-04-04T08:03:53.052Z,4.66
2016-04-04T08:04:07.240Z,4.74
2016-04-04T08:04:21.352Z,4.76
2016-04-04T08:04:35.227Z,4.91
2016-04-04T08:04:49.180Z,4.94
2016-04-04T08:05:03.868Z,5.1
2016-04-04T08:05:16.980Z,5.1
2016-04-04T08:05:33.949Z,5.18
2016-04-04T08:05:47.933Z,5.34
2016-04-04T08:06:01.949Z,5.41
2016-04-04T08:06:15.983Z,5.36
2016-04-04T08:06:29.796Z,5.28
2016-04-04T08:06:43.718Z,5.16
2016-04-04T08:06:57.577Z,5.08
2016-04-04T08:07:25.532Z,4.9
2016-04-04T08:07:38.642Z,4.68
2016-04-04T08:07:52.860Z,4.64
2016-04-04T08:08:06.876Z,4.38
2016-04-04T08:08:21.159Z,4.48
2016-04-04T08:08:35.253Z,4.47
2016-04-04T08:08:49.190Z,4.47
2016-04-04T08:09:02.472Z,4.53
2016-04-04T08:09:16.225Z,4.48
2016-04-04T08:09:30.490Z,4.46
2016-04-04T08:09:44.381Z,4.47
2016-04-04T08:09:58.537Z,4.47
2016-04-04T08:10:12.681Z,4.48
2016-04-04T08:10:26.728Z,4.47
2016-04-04T08:10:40.712Z,4.47
2016-04-04T08:10:54.884Z,4.48
2016-04-04T08:11:08.900Z,4.35
2016-04-04T08:11:22.637Z,4.38
2016-04-04T08:11:36.637Z,4.39
2016-04-04T08:11:50.465Z,4.24
2016-04-04T08:12:04.340Z,4.4
2016-04-04T08:12:18.123Z,4.33
2016-04-04T08:12:32.139Z,4.02
2016-04-04T08:12:49.311Z,3.97
2016-04-04T08:13:17.314Z,3.86
2016-04-04T08:13:31.376Z,3.79
2016-04-04T08:13:44.579Z,3.75
2016-04-04T08:13:58.626Z,3.79
2016-04-04T08:14:12.706Z,3.99
2016-04-04T08:14:26.441Z,3.82
2016-04-04T08:14:40.535Z,3.71
2016-04-04T08:14:54.472Z,3.48
2016-04-04T08:15:08.660Z,3.57
2016-04-04T08:15:22.600Z,3.57
2016-04-04T08:15:36.584Z,3.53
2016-04-04T08:15:50.631Z,3.71
2016-04-04T08:16:04.866Z,3.75
2016-04-04T08:16:19.119Z,3.76
2016-04-04T08:16:33.275Z,3.84
2016-04-04T08:16:47.181Z,3.9
2016-04-04T08:17:43.606Z,3.99
2016-04-04T08:17:57.669Z,3.9
2016-04-04T08:18:11.687Z,4
2016-04-04T08:18:39.672Z,4.02
2016-04-04T08:18:53.640Z,3.97
2016-04-04T08:19:07.609Z,4.03
2016-04-04T08:19:21.799Z,3.93
2016-04-04T08:19:35.799Z,3.79
2016-04-04T08:19:49.736Z,3.84
2016-04-04T08:20:03.939Z,3.96
2016-04-04T08:20:17.880Z,4.04
2016-04-04T08:20:31.989Z,3.89
2016-04-04T08:20:46.223Z,3.79
2016-04-04T08:20:59.817Z,3.94
2016-04-04T08:21:13.648Z,3.94
2016-04-04T08:21:27.320Z,3.89
2016-04-04T08:21:41.523Z,3.99
2016-04-04T08:21:55.398Z,4
2016-04-04T08:22:09.336Z,4.1
2016-04-04T08:22:23.041Z,4.03
2016-04-04T08:22:36.869Z,4.33
2016-04-04T08:22:50.244Z,4.32
2016-04-04T08:23:04.182Z,4.48
2016-04-04T08:23:18.106Z,4.53
2016-04-04T08:23:32.200Z,4.69
2016-04-04T08:23:45.372Z,4.68
2016-04-04T08:23:59.185Z,5
2016-04-04T08:24:13.531Z,5.06
2016-04-04T08:24:27.859Z,5.13
2016-04-04T08:24:42.016Z,5.13
2016-04-04T08:24:56.250Z,5.15
2016-04-04T08:25:09.313Z,5.1
2016-04-04T08:25:23.503Z,5.06
2016-04-04T08:25:37.816Z,5.06
2016-04-04T08:25:51.769Z,4.94
2016-04-04T08:26:05.831Z,4.68
2016-04-04T08:26:19.802Z,4.58
2016-04-04T08:26:33.693Z,4.48
2016-04-04T08:26:47.052Z,4.35
2016-04-04T08:27:15.227Z,4.2
2016-04-04T08:27:29.180Z,4.38
2016-04-04T08:27:43.211Z,4.33
2016-04-04T08:27:55.852Z,4.33
2016-04-04T08:28:09.930Z,4.33
2016-04-04T08:28:23.807Z,4.39
2016-04-04T08:28:36.932Z,4.4
2016-04-04T08:28:50.854Z,4.33
2016-04-04T08:29:04.776Z,4.36
2016-04-04T08:29:18.686Z,4.39
2016-04-04T08:29:32.733Z,4.32
2016-04-04T08:29:47.092Z,4.33
2016-04-04T08:30:01.108Z,4.33
2016-04-04T08:30:15.141Z,4.32
2016-04-04T08:30:29.204Z,4.39
2016-04-04T08:30:43.500Z,4.33
2016-04-04T08:30:58.063Z,4.15
2016-04-04T08:31:11.878Z,4.2
2016-04-04T08:31:25.894Z,4.28
2016-04-04T08:31:39.863Z,4.29
2016-04-04T08:31:53.878Z,4.35
2016-04-04T08:32:08.019Z,4.14
2016-04-04T08:32:22.052Z,4.18
2016-04-04T08:32:36.209Z,4.15
2016-04-04T08:32:49.959Z,4.24
2016-04-04T08:33:03.880Z,4.3
2016-04-04T08:33:18.170Z,4.03
2016-04-04T08:33:32.233Z,3.9
2016-04-04T08:33:46.170Z,4.15
2016-04-04T08:33:59.998Z,4.14
2016-04-04T08:34:13.989Z,4.17
2016-04-04T08:34:27.786Z,3.94
2016-04-04T08:34:41.786Z,3.81
2016-04-04T08:34:55.896Z,3.75
2016-04-04T08:35:10.755Z,3.82
2016-04-04T08:35:24.590Z,3.86
2016-04-04T08:35:38.605Z,3.89
2016-04-04T08:35:52.762Z,3.89
2016-04-04T08:36:06.824Z,3.92
2016-04-04T08:36:20.596Z,3.79
2016-04-04T08:36:34.581Z,3.66
2016-04-04T08:36:48.503Z,3.54
2016-04-04T08:37:02.456Z,3.66
2016-04-04T08:37:16.493Z,3.42
2016-04-04T08:37:30.477Z,3.24
2016-04-04T08:37:44.618Z,3.01
2016-04-04T08:37:58.930Z,2.91
2016-04-04T08:38:13.194Z,2.78
2016-04-04T08:38:27.084Z,2.76
2016-04-04T08:38:41.350Z,2.9
2016-04-04T08:38:55.334Z,2.91
2016-04-04T08:39:09.303Z,3.13
2016-04-04T08:39:23.676Z,3.24
2016-04-04T08:39:37.739Z,3.13
2016-04-04T08:39:50.926Z,3.13
2016-04-04T08:40:05.004Z,3.02
2016-04-04T08:40:19.221Z,3.01
2016-04-04T08:40:33.377Z,3.14
2016-04-04T08:40:47.409Z,3.23
2016-04-04T08:41:01.409Z,3.3
2016-04-04T08:41:15.345Z,3.19
2016-04-04T08:41:29.501Z,3.02
2016-04-04T08:41:43.626Z,3.09
2016-04-04T08:41:57.017Z,2.96
2016-04-04T08:42:11.204Z,2.85
2016-04-04T08:42:25.187Z,2.9
2016-04-04T08:42:42.062Z,2.69
2016-04-04T08:42:56.234Z,2.77
2016-04-04T08:43:10.234Z,2.7
2016-04-04T08:43:24.719Z,2.85
2016-04-04T08:43:39.313Z,3.11
2016-04-04T08:43:53.203Z,3.26
2016-04-04T08:44:06.344Z,3.32
2016-04-04T08:44:20.408Z,3.49
2016-04-04T08:45:05.908Z,3.66
2016-04-04T08:45:19.941Z,3.79
2016-04-04T08:45:36.941Z,3.79
2016-04-04T08:45:51.238Z,3.97
2016-04-04T08:46:05.206Z,3.96
2016-04-04T08:46:22.145Z,3.96
2016-04-04T08:46:36.504Z,4.03
2016-04-04T08:46:50.629Z,4.14
2016-04-04T08:47:04.973Z,4.21
2016-04-04T08:47:18.317Z,4.11
2016-04-04T08:47:32.770Z,4.12
2016-04-04T08:47:47.004Z,4.08
2016-04-04T08:48:14.992Z,4.17
2016-04-04T08:48:42.960Z,4.04
2016-04-04T08:48:56.945Z,4.17
2016-04-04T08:49:11.148Z,4.15
2016-04-04T08:49:25.336Z,4.18
2016-04-04T08:49:39.461Z,4.4
2016-04-04T08:49:54.368Z,4.6
2016-04-04T08:50:08.305Z,4.66
2016-04-04T08:50:22.510Z,4.75
2016-04-04T08:50:36.573Z,4.54
2016-04-04T08:50:50.588Z,4.18
2016-04-04T08:51:04.448Z,4.07
2016-04-04T08:51:18.419Z,4
2016-04-04T08:51:32.497Z,3.82
2016-04-04T08:51:46.794Z,3.54
2016-04-04T08:52:00.872Z,3.42
2016-04-04T08:52:18.108Z,3.57
2016-04-04T08:52:32.217Z,3.67
2016-04-04T08:52:46.514Z,3.79
2016-04-04T08:53:00.749Z,3.92
2016-04-04T08:53:14.673Z,4
2016-04-04T08:53:28.673Z,4.02
2016-04-04T08:53:42.641Z,3.86
2016-04-04T08:53:56.782Z,4
2016-04-04T08:54:10.719Z,4.1
2016-04-04T08:54:24.738Z,3.93
2016-04-04T08:54:38.707Z,4.14
2016-04-04T08:54:52.894Z,4.39
2016-04-04T08:55:10.191Z,4.44
2016-04-04T08:55:24.053Z,4.65
2016-04-04T08:55:38.068Z,4.83
2016-04-04T08:56:06.084Z,4.91
2016-04-04T08:56:20.758Z,5.09
2016-04-04T08:56:34.898Z,5.08
2016-04-04T08:56:51.914Z,5.03
2016-04-04T08:57:06.351Z,4.92
2016-04-04T08:57:34.791Z,4.9
2016-04-04T08:57:48.744Z,4.68
2016-04-04T08:58:03.557Z,4.58
2016-04-04T08:58:17.856Z,4.58
2016-04-04T08:58:31.763Z,4.53
2016-04-04T08:58:45.716Z,4.48
2016-04-04T08:58:59.872Z,4.58
2016-04-04T08:59:13.813Z,4.47
2016-04-04T08:59:27.906Z,4.33
2016-04-04T08:59:41.891Z,4.44
2016-04-04T08:59:56.828Z,4.47
2016-04-04T09:00:10.844Z,4.6
2016-04-04T09:00:24.737Z,4.71
2016-04-04T09:00:38.659Z,4.65
2016-04-04T09:00:52.316Z,4.65
2016-04-04T09:01:06.284Z,4.53
2016-04-04T09:01:20.364Z,4.48
2016-04-04T09:01:34.443Z,4.46
2016-04-04T09:01:51.677Z,4.56
2016-04-04T09:02:05.818Z,4.6
2016-04-04T09:02:19.663Z,4.74
2016-04-04T09:02:33.538Z,4.71
2016-04-04T09:02:47.820Z,4.76
2016-04-04T09:03:04.804Z,4.91
2016-04-04T09:03:18.808Z,4.97
2016-04-04T09:03:33.136Z,5.02
2016-04-04T09:03:47.777Z,5.09
2016-04-04T09:04:01.558Z,5.09
2016-04-04T09:04:15.607Z,5.03
2016-04-04T09:04:29.794Z,5.09
2016-04-04T09:04:43.466Z,4.91
2016-04-04T09:04:57.388Z,4.66
2016-04-04T09:05:14.500Z,4.5
2016-04-04T09:05:28.704Z,4.47
2016-04-04T09:05:42.594Z,4.54
2016-04-04T09:05:56.719Z,4.48
2016-04-04T09:06:13.034Z,4.46
2016-04-04T09:06:27.299Z,4.15
2016-04-04T09:06:40.518Z,4.12
2016-04-04T09:06:54.393Z,4
2016-04-04T09:07:08.752Z,4.07
2016-04-04T09:07:22.927Z,4.15
2016-04-04T09:07:51.052Z,4.46
2016-04-04T09:08:04.896Z,4.51
2016-04-04T09:08:19.071Z,4.48
2016-04-04T09:08:33.008Z,4.6
2016-04-04T09:08:46.946Z,4.71
2016-04-04T09:09:01.337Z,4.65
2016-04-04T09:09:15.418Z,4.54
2016-04-04T09:09:29.793Z,4.46
2016-04-04T09:09:43.527Z,4.47
2016-04-04T09:09:57.449Z,4.38
2016-04-04T09:10:11.652Z,4.38
2016-04-04T09:10:25.357Z,4.38
2016-04-04T09:10:39.498Z,4.33
2016-04-04T09:10:53.045Z,4.39
2016-04-04T09:11:07.295Z,4.33
2016-04-04T09:11:21.282Z,4.42
2016-04-04T09:11:35.298Z,4.4
2016-04-04T09:11:49.438Z,4.38
2016-04-04T09:12:03.391Z,4.32
2016-04-04T09:12:17.362Z,4.32
2016-04-04T09:12:31.300Z,4.42
2016-04-04T09:12:45.472Z,4.32
2016-04-04T09:12:59.409Z,4.32
2016-04-04T09:13:13.740Z,4.15
2016-04-04T09:13:27.975Z,4.21
2016-04-04T09:13:41.803Z,4.11
2016-04-04T09:13:58.834Z,4.11
2016-04-04T09:14:12.743Z,4.08
2016-04-04T09:14:26.728Z,4.07
2016-04-04T09:14:40.728Z,4.07
2016-04-04T09:14:54.728Z,4.04
2016-04-04T09:15:07.946Z,3.94
2016-04-04T09:15:21.793Z,3.78
2016-04-04T09:15:35.496Z,3.72
2016-04-04T09:15:49.340Z,3.57
2016-04-04T09:16:03.887Z,3.53
2016-04-04T09:16:18.092Z,3.54
2016-04-04T09:16:32.108Z,3.57
2016-04-04T09:16:46.264Z,3.54
2016-04-04T09:17:00.342Z,3.57
2016-04-04T09:17:14.626Z,3.45
2016-04-04T09:17:28.595Z,3.3
2016-04-04T09:17:42.439Z,3.17
2016-04-04T09:17:55.720Z,3.01
2016-04-04T09:18:09.767Z,3.02
2016-04-04T09:18:23.723Z,3.02
2016-04-04T09:18:37.567Z,3.02
2016-04-04T09:18:51.598Z,3.02
2016-04-04T09:19:05.504Z,3.08
2016-04-04T09:19:19.506Z,3.17
2016-04-04T09:19:47.897Z,3.23
2016-04-04T09:20:02.037Z,3.26
2016-04-04T09:20:16.009Z,3.2
2016-04-04T09:20:29.962Z,3.17
2016-04-04T09:20:43.915Z,3.29
2016-04-04T09:20:58.212Z,3.13
2016-04-04T09:21:12.087Z,3.05
2016-04-04T09:21:26.028Z,2.9
2016-04-04T09:21:40.278Z,2.77
2016-04-04T09:21:54.059Z,2.76
2016-04-04T09:22:22.014Z,2.8
2016-04-04T09:22:36.092Z,2.9
2016-04-04T09:22:50.530Z,2.88
2016-04-04T09:23:04.530Z,2.96
2016-04-04T09:23:18.548Z,3.03
2016-04-04T09:23:32.798Z,2.96
2016-04-04T09:23:46.752Z,3.02
2016-04-04T09:24:00.798Z,3.05
2016-04-04T09:24:14.755Z,3.16
2016-04-04T09:24:28.567Z,3.14
2016-04-04T09:24:42.442Z,3.08
2016-04-04T09:24:56.255Z,3.01
2016-04-04T09:25:10.208Z,3.01
2016-04-04T09:25:24.304Z,3.09
2016-04-04T09:25:38.367Z,3.16
2016-04-04T09:25:52.351Z,3.08
2016-04-04T09:26:06.570Z,3.11
2016-04-04T09:26:20.603Z,3.11
2016-04-04T09:26:35.025Z,3.14
2016-04-04T09:26:48.963Z,3.13
2016-04-04T09:27:03.166Z,3.14
2016-04-04T09:27:17.138Z,3.09
2016-04-04T09:27:31.059Z,3.11
2016-04-04T09:27:45.653Z,3.01
2016-04-04T09:27:59.950Z,3.01
2016-04-04T09:28:13.906Z,2.87
2016-04-04T09:28:27.875Z,2.91
2016-04-04T09:28:42.203Z,2.73
2016-04-04T09:28:56.141Z,2.65
2016-04-04T09:29:10.094Z,2.55
2016-04-04T09:29:24.111Z,2.62
2016-04-04T09:29:37.971Z,2.55
2016-04-04T09:29:52.018Z,2.63
2016-04-04T09:30:06.033Z,2.55
2016-04-04T09:30:20.036Z,2.55
2016-04-04T09:30:33.911Z,2.66
2016-04-04T09:30:47.880Z,2.73
2016-04-04T09:31:01.833Z,2.77
2016-04-04T09:31:15.024Z,2.85
2016-04-04T09:31:29.008Z,2.98
2016-04-04T09:31:43.070Z,2.88
2016-04-04T09:31:57.055Z,2.98
2016-04-04T09:32:11.289Z,2.93
2016-04-04T09:32:25.088Z,2.8
2016-04-04T09:32:53.041Z,2.49
2016-04-04T09:33:06.979Z,2.4
2016-04-04T09:33:21.154Z,2.34
2016-04-04T09:33:38.325Z,2.36
2016-04-04T09:33:52.325Z,2.31
2016-04-04T09:34:06.560Z,2.3
2016-04-04T09:34:20.625Z,2.13
2016-04-04T09:34:34.282Z,2.08
2016-04-04T09:34:48.313Z,1.97
2016-04-04T09:35:02.500Z,2.08
2016-04-04T09:35:16.377Z,2.16
2016-04-04T09:35:30.862Z,2.24
2016-04-04T09:35:44.940Z,2.34
2016-04-04T09:35:58.893Z,2.44
2016-04-04T09:36:12.721Z,2.48
2016-04-04T09:36:26.787Z,2.44
2016-04-04T09:36:40.974Z,2.38
2016-04-04T09:36:54.974Z,2.23
2016-04-04T09:37:08.974Z,2.22
2016-04-04T09:37:22.977Z,2.18
2016-04-04T09:37:36.915Z,2.05
2016-04-04T09:37:51.118Z,2.05
2016-04-04T09:38:08.071Z,1.82
2016-04-04T09:38:22.152Z,1.84
2016-04-04T09:38:36.574Z,1.66
2016-04-04T09:39:04.589Z,1.72
2016-04-04T09:39:18.795Z,1.79
2016-04-04T09:39:46.841Z,2.02
2016-04-04T09:40:00.701Z,2.16
2016-04-04T09:40:14.579Z,2.36
2016-04-04T09:40:28.516Z,2.4
2016-04-04T09:40:42.532Z,2.54
2016-04-04T09:40:56.501Z,2.58
2016-04-04T09:41:10.469Z,2.69
2016-04-04T09:41:24.659Z,2.7
2016-04-04T09:41:38.550Z,2.73
2016-04-04T09:41:52.487Z,2.77
2016-04-04T09:42:06.659Z,2.81
2016-04-04T09:42:20.568Z,2.72
2016-04-04T09:42:34.553Z,2.7
2016-04-04T09:43:02.771Z,2.7
2016-04-04T09:43:16.899Z,2.72
2016-04-04T09:43:58.837Z,2.51
2016-04-04T09:44:12.868Z,2.54
2016-04-04T09:44:26.824Z,2.66
2016-04-04T09:44:40.746Z,2.65
2016-04-04T09:44:54.605Z,2.72
2016-04-04T09:45:08.668Z,2.65
2016-04-04T09:45:22.655Z,2.73
2016-04-04T09:45:36.671Z,2.87
2016-04-04T09:45:50.687Z,2.84
2016-04-04T09:46:04.765Z,2.87
2016-04-04T09:46:18.814Z,2.76
2016-04-04T09:46:32.657Z,2.72
2016-04-04T09:46:46.860Z,2.7
2016-04-04T09:47:00.782Z,2.6
2016-04-04T09:47:14.831Z,2.59